sensor_id;sensor_type;location;lat;lon;timestamp;pressure;altitude;pressure_sealevel;temperature;humidity
53647;BME280;39550;52.230;5.194;2023-08-06T00:00:14;100325.53;;;15.89;84.68
53647;BME280;39550;52.230;5.194;2023-08-06T00:02:40;100333.34;;;15.89;84.78
53647;BME280;39550;52.230;5.194;2023-08-06T00:05:05;100329.91;;;15.89;84.55
53647;BME280;39550;52.230;5.194;2023-08-06T00:07:32;100335.09;;;15.89;84.74
53647;BME280;39550;52.230;5.194;2023-08-06T00:09:58;100340.28;;;15.89;84.88
53647;BME280;39550;52.230;5.194;2023-08-06T00:12:24;100328.28;;;15.83;84.48
53647;BME280;39550;52.230;5.194;2023-08-06T00:14:50;100333.38;;;15.88;84.90
53647;BME280;39550;52.230;5.194;2023-08-06T00:17:17;100336.00;;;15.86;84.55
53647;BME280;39550;52.230;5.194;2023-08-06T00:19:43;100332.53;;;15.87;84.71
53647;BME280;39550;52.230;5.194;2023-08-06T00:22:09;100330.81;;;15.86;84.44
53647;BME280;39550;52.230;5.194;2023-08-06T00:24:35;100327.41;;;15.84;84.57
53647;BME280;39550;52.230;5.194;2023-08-06T00:27:01;100331.69;;;15.85;84.90
53647;BME280;39550;52.230;5.194;2023-08-06T00:29:27;100327.44;;;15.82;84.48
53647;BME280;39550;52.230;5.194;2023-08-06T00:31:53;100334.28;;;15.85;84.19
53647;BME280;39550;52.230;5.194;2023-08-06T00:34:19;100332.59;;;15.84;84.43
53647;BME280;39550;52.230;5.194;2023-08-06T00:36:44;100333.44;;;15.85;84.93
53647;BME280;39550;52.230;5.194;2023-08-06T00:39:10;100331.72;;;15.83;84.83
53647;BME280;39550;52.230;5.194;2023-08-06T00:41:36;100330.88;;;15.83;84.33
53647;BME280;39550;52.230;5.194;2023-08-06T00:44:01;100336.09;;;15.83;84.79
53647;BME280;39550;52.230;5.194;2023-08-06T00:46:27;100325.69;;;15.83;84.55
53647;BME280;39550;52.230;5.194;2023-08-06T00:48:53;100333.50;;;15.83;84.27
53647;BME280;39550;52.230;5.194;2023-08-06T00:51:19;100330.88;;;15.83;84.93
53647;BME280;39550;52.230;5.194;2023-08-06T00:53:46;100328.28;;;15.83;84.42
53647;BME280;39550;52.230;5.194;2023-08-06T00:56:12;100330.06;;;15.81;84.82
53647;BME280;39550;52.230;5.194;2023-08-06T00:58:38;100332.66;;;15.81;84.45
53647;BME280;39550;52.230;5.194;2023-08-06T01:01:04;100328.28;;;15.83;84.71
53647;BME280;39550;52.230;5.194;2023-08-06T01:03:29;100324.00;;;15.80;84.40
53647;BME280;39550;52.230;5.194;2023-08-06T01:05:55;100322.31;;;15.78;84.71
53647;BME280;39550;52.230;5.194;2023-08-06T01:11:21;100325.78;;;15.80;84.75
53647;BME280;39550;52.230;5.194;2023-08-06T01:13:54;100324.03;;;15.79;85.26
53647;BME280;39550;52.230;5.194;2023-08-06T01:16:23;100319.72;;;15.78;84.53
53647;BME280;39550;52.230;5.194;2023-08-06T01:18:49;100321.41;;;15.79;84.85
53647;BME280;39550;52.230;5.194;2023-08-06T01:21:18;100319.72;;;15.78;85.29
53647;BME280;39550;52.230;5.194;2023-08-06T01:23:44;100317.09;;;15.78;84.58
53647;BME280;39550;52.230;5.194;2023-08-06T01:29:10;100320.59;;;15.77;84.71
53647;BME280;39550;52.230;5.194;2023-08-06T01:31:42;100320.63;;;15.75;84.67
53647;BME280;39550;52.230;5.194;2023-08-06T01:34:13;100324.94;;;15.76;84.37
53647;BME280;39550;52.230;5.194;2023-08-06T01:36:39;100323.22;;;15.75;84.84
53647;BME280;39550;52.230;5.194;2023-08-06T01:39:05;100318.09;;;15.72;84.93
53647;BME280;39550;52.230;5.194;2023-08-06T01:41:31;100318.91;;;15.76;84.38
53647;BME280;39550;52.230;5.194;2023-08-06T01:43:57;100324.97;;;15.75;84.56
53647;BME280;39550;52.230;5.194;2023-08-06T01:46:22;100322.38;;;15.75;85.18
53647;BME280;39550;52.230;5.194;2023-08-06T01:48:47;100324.09;;;15.76;84.49
53647;BME280;39550;52.230;5.194;2023-08-06T01:51:13;100321.53;;;15.74;84.47
53647;BME280;39550;52.230;5.194;2023-08-06T01:53:38;100324.13;;;15.73;85.13
53647;BME280;39550;52.230;5.194;2023-08-06T01:56:03;100323.25;;;15.74;85.05
53647;BME280;39550;52.230;5.194;2023-08-06T01:58:29;100328.44;;;15.74;84.78
53647;BME280;39550;52.230;5.194;2023-08-06T02:00:54;100314.69;;;15.70;84.71
53647;BME280;39550;52.230;5.194;2023-08-06T02:03:21;100324.13;;;15.73;85.19
53647;BME280;39550;52.230;5.194;2023-08-06T02:05:46;100328.50;;;15.72;85.00
53647;BME280;39550;52.230;5.194;2023-08-06T02:08:12;100324.13;;;15.73;85.06
53647;BME280;39550;52.230;5.194;2023-08-06T02:10:37;100325.94;;;15.71;84.47
53647;BME280;39550;52.230;5.194;2023-08-06T02:13:02;100331.09;;;15.72;84.51
53647;BME280;39550;52.230;5.194;2023-08-06T02:15:28;100326.00;;;15.68;85.11
53647;BME280;39550;52.230;5.194;2023-08-06T02:17:53;100330.28;;;15.70;84.96
53647;BME280;39550;52.230;5.194;2023-08-06T02:20:19;100332.84;;;15.72;84.71
53647;BME280;39550;52.230;5.194;2023-08-06T02:22:44;100329.38;;;15.71;84.96
53647;BME280;39550;52.230;5.194;2023-08-06T02:25:09;100329.41;;;15.70;84.62
53647;BME280;39550;52.230;5.194;2023-08-06T02:27:35;100323.44;;;15.66;85.12
53647;BME280;39550;52.230;5.194;2023-08-06T02:30:02;100329.41;;;15.70;84.71
53647;BME280;39550;52.230;5.194;2023-08-06T02:32:29;100329.41;;;15.70;85.10
53647;BME280;39550;52.230;5.194;2023-08-06T02:34:57;100325.94;;;15.71;85.25
53647;BME280;39550;52.230;5.194;2023-08-06T02:37:22;100329.41;;;15.70;85.38
53647;BME280;39550;52.230;5.194;2023-08-06T02:39:47;100321.66;;;15.68;84.43
53647;BME280;39550;52.230;5.194;2023-08-06T02:42:13;100326.84;;;15.68;84.75
53647;BME280;39550;52.230;5.194;2023-08-06T02:44:39;100322.50;;;15.69;85.15
53647;BME280;39550;52.230;5.194;2023-08-06T02:47:05;100322.50;;;15.69;84.41
53647;BME280;39550;52.230;5.194;2023-08-06T02:49:31;100324.25;;;15.68;84.68
53647;BME280;39550;52.230;5.194;2023-08-06T02:51:56;100323.38;;;15.69;84.25
53647;BME280;39550;52.230;5.194;2023-08-06T02:54:21;100322.50;;;15.69;84.51
53647;BME280;39550;52.230;5.194;2023-08-06T02:56:47;100322.50;;;15.69;84.65
53647;BME280;39550;52.230;5.194;2023-08-06T02:59:13;100317.28;;;15.69;84.87
53647;BME280;39550;52.230;5.194;2023-08-06T03:01:38;100315.63;;;15.68;84.43
53647;BME280;39550;52.230;5.194;2023-08-06T03:04:05;100319.09;;;15.66;84.98
53647;BME280;39550;52.230;5.194;2023-08-06T03:06:30;100317.38;;;15.65;84.61
53647;BME280;39550;52.230;5.194;2023-08-06T03:08:56;100313.91;;;15.66;84.69
53647;BME280;39550;52.230;5.194;2023-08-06T03:11:21;100312.19;;;15.65;84.53
53647;BME280;39550;52.230;5.194;2023-08-06T03:13:48;100309.56;;;15.65;84.72
53647;BME280;39550;52.230;5.194;2023-08-06T03:16:14;100321.69;;;15.66;84.48
53647;BME280;39550;52.230;5.194;2023-08-06T03:18:40;100310.47;;;15.64;84.75
53647;BME280;39550;52.230;5.194;2023-08-06T03:21:07;100311.41;;;15.62;85.03
53647;BME280;39550;52.230;5.194;2023-08-06T03:23:32;100306.25;;;15.60;84.71
53647;BME280;39550;52.230;5.194;2023-08-06T03:26:03;100321.72;;;15.65;84.59
53647;BME280;39550;52.230;5.194;2023-08-06T03:28:29;100319.16;;;15.63;84.74
53647;BME280;39550;52.230;5.194;2023-08-06T03:31:00;100314.81;;;15.64;84.49
53647;BME280;39550;52.230;5.194;2023-08-06T03:33:26;100321.72;;;15.65;84.65
53647;BME280;39550;52.230;5.194;2023-08-06T03:35:51;100319.13;;;15.65;84.44
53647;BME280;39550;52.230;5.194;2023-08-06T03:38:16;100314.81;;;15.64;84.63
53647;BME280;39550;52.230;5.194;2023-08-06T03:40:42;100303.69;;;15.57;85.11
53647;BME280;39550;52.230;5.194;2023-08-06T03:43:07;100317.41;;;15.64;85.23
53647;BME280;39550;52.230;5.194;2023-08-06T03:45:32;100316.56;;;15.63;84.32
53647;BME280;39550;52.230;5.194;2023-08-06T03:47:58;100313.97;;;15.63;84.67
53647;BME280;39550;52.230;5.194;2023-08-06T03:50:23;100315.66;;;15.64;84.64
53647;BME280;39550;52.230;5.194;2023-08-06T03:52:48;100316.56;;;15.63;84.53
53647;BME280;39550;52.230;5.194;2023-08-06T03:55:14;100315.69;;;15.63;84.67
53647;BME280;39550;52.230;5.194;2023-08-06T03:57:39;100313.97;;;15.63;84.69
53647;BME280;39550;52.230;5.194;2023-08-06T04:00:05;100310.47;;;15.64;84.48
53647;BME280;39550;52.230;5.194;2023-08-06T04:02:30;100314.84;;;15.62;84.62
53647;BME280;39550;52.230;5.194;2023-08-06T04:04:56;100316.59;;;15.62;84.63
53647;BME280;39550;52.230;5.194;2023-08-06T04:07:21;100316.59;;;15.62;84.48
53647;BME280;39550;52.230;5.194;2023-08-06T04:09:53;100312.25;;;15.62;84.58
53647;BME280;39550;52.230;5.194;2023-08-06T04:12:19;100310.53;;;15.61;84.74
53647;BME280;39550;52.230;5.194;2023-08-06T04:14:44;100316.59;;;15.62;84.64
53647;BME280;39550;52.230;5.194;2023-08-06T04:17:09;100315.72;;;15.61;84.67
53647;BME280;39550;52.230;5.194;2023-08-06T04:19:35;100320.03;;;15.62;84.71
53647;BME280;39550;52.230;5.194;2023-08-06T04:22:00;100324.34;;;15.63;85.09
53647;BME280;39550;52.230;5.194;2023-08-06T04:24:27;100329.63;;;15.60;85.11
53647;BME280;39550;52.230;5.194;2023-08-06T04:26:53;100333.03;;;15.62;85.37
53647;BME280;39550;52.230;5.194;2023-08-06T04:29:18;100328.72;;;15.61;85.47
53647;BME280;39550;52.230;5.194;2023-08-06T04:31:43;100339.94;;;15.63;85.19
53647;BME280;39550;52.230;5.194;2023-08-06T04:34:09;100331.28;;;15.63;85.01
53647;BME280;39550;52.230;5.194;2023-08-06T04:36:34;100339.09;;;15.61;84.90
53647;BME280;39550;52.230;5.194;2023-08-06T04:38:59;100341.72;;;15.60;85.65
53647;BME280;39550;52.230;5.194;2023-08-06T04:41:25;100343.50;;;15.59;85.47
53647;BME280;39550;52.230;5.194;2023-08-06T04:43:50;100341.78;;;15.58;84.94
53647;BME280;39550;52.230;5.194;2023-08-06T04:46:16;100345.22;;;15.60;85.54
53647;BME280;39550;52.230;5.194;2023-08-06T04:48:41;100347.78;;;15.62;85.26
53647;BME280;39550;52.230;5.194;2023-08-06T04:51:07;100339.28;;;15.54;85.87
53647;BME280;39550;52.230;5.194;2023-08-06T04:53:33;100348.78;;;15.53;85.88
53647;BME280;39550;52.230;5.194;2023-08-06T04:55:59;100347.16;;;15.49;86.61
53647;BME280;39550;52.230;5.194;2023-08-06T04:58:24;100347.19;;;15.47;87.11
53647;BME280;39550;52.230;5.194;2023-08-06T05:00:49;100358.44;;;15.46;86.79
53647;BME280;39550;52.230;5.194;2023-08-06T05:03:15;100355.88;;;15.45;87.06
53647;BME280;39550;52.230;5.194;2023-08-06T05:10:44;100354.19;;;15.44;87.67
53647;BME280;39550;52.230;5.194;2023-08-06T05:13:10;100355.88;;;15.45;86.83
53647;BME280;39550;52.230;5.194;2023-08-06T05:15:35;100359.31;;;15.47;86.52
53647;BME280;39550;52.230;5.194;2023-08-06T05:18:00;100364.44;;;15.50;87.15
53647;BME280;39550;52.230;5.194;2023-08-06T05:20:26;100371.34;;;15.51;86.89
53647;BME280;39550;52.230;5.194;2023-08-06T05:22:51;100368.75;;;15.51;87.07
53647;BME280;39550;52.230;5.194;2023-08-06T05:25:16;100373.06;;;15.52;86.79
53647;BME280;39550;52.230;5.194;2023-08-06T05:27:42;100378.28;;;15.52;87.26
53647;BME280;39550;52.230;5.194;2023-08-06T05:30:08;100383.47;;;15.52;87.15
53647;BME280;39550;52.230;5.194;2023-08-06T05:32:33;100376.63;;;15.48;86.97
53647;BME280;39550;52.230;5.194;2023-08-06T05:34:59;100382.69;;;15.47;86.57
53647;BME280;39550;52.230;5.194;2023-08-06T05:37:24;100393.78;;;15.55;86.22
53647;BME280;39550;52.230;5.194;2023-08-06T05:39:50;100392.94;;;15.53;86.50
53647;BME280;39550;52.230;5.194;2023-08-06T05:42:15;100402.44;;;15.54;86.31
53647;BME280;39550;52.230;5.194;2023-08-06T05:44:41;100393.78;;;15.55;86.02
53647;BME280;39550;52.230;5.194;2023-08-06T05:47:06;100398.97;;;15.55;86.66
53647;BME280;39550;52.230;5.194;2023-08-06T05:49:31;100404.16;;;15.55;86.09
53647;BME280;39550;52.230;5.194;2023-08-06T05:51:57;100398.13;;;15.53;86.18
53647;BME280;39550;52.230;5.194;2023-08-06T05:54:22;100406.84;;;15.52;86.70
53647;BME280;39550;52.230;5.194;2023-08-06T05:56:47;100404.25;;;15.52;86.83
53647;BME280;39550;52.230;5.194;2023-08-06T05:59:13;100405.09;;;15.53;86.91
53647;BME280;39550;52.230;5.194;2023-08-06T06:01:38;100408.56;;;15.52;86.31
53647;BME280;39550;52.230;5.194;2023-08-06T06:04:03;100410.28;;;15.53;86.03
53647;BME280;39550;52.230;5.194;2023-08-06T06:06:29;100413.69;;;15.55;86.04
53647;BME280;39550;52.230;5.194;2023-08-06T06:08:54;100417.97;;;15.57;86.06
53647;BME280;39550;52.230;5.194;2023-08-06T06:11:19;100414.56;;;15.55;86.22
53647;BME280;39550;52.230;5.194;2023-08-06T06:13:49;100418.03;;;15.54;86.95
53647;BME280;39550;52.230;5.194;2023-08-06T06:16:14;100412.91;;;15.51;86.64
53647;BME280;39550;52.230;5.194;2023-08-06T06:18:40;100424.19;;;15.48;87.79
53647;BME280;39550;52.230;5.194;2023-08-06T06:21:05;100426.84;;;15.47;87.37
53647;BME280;39550;52.230;5.194;2023-08-06T06:23:30;100422.41;;;15.52;87.34
53647;BME280;39550;52.230;5.194;2023-08-06T06:25:55;100419.78;;;15.54;87.13
53647;BME280;39550;52.230;5.194;2023-08-06T06:28:21;100428.41;;;15.54;87.02
53647;BME280;39550;52.230;5.194;2023-08-06T06:30:47;100417.06;;;15.60;87.62
53647;BME280;39550;52.230;5.194;2023-08-06T06:33:14;100433.50;;;15.59;87.28
53647;BME280;39550;52.230;5.194;2023-08-06T06:35:39;100437.09;;;15.53;87.42
53647;BME280;39550;52.230;5.194;2023-08-06T06:38:05;100449.31;;;15.48;87.54
53647;BME280;39550;52.230;5.194;2023-08-06T06:40:30;100449.34;;;15.45;87.61
53647;BME280;39550;52.230;5.194;2023-08-06T06:42:55;100451.09;;;15.46;87.44
53647;BME280;39550;52.230;5.194;2023-08-06T06:45:21;100451.09;;;15.46;87.96
53647;BME280;39550;52.230;5.194;2023-08-06T06:47:47;100454.56;;;15.45;87.55
53647;BME280;39550;52.230;5.194;2023-08-06T06:50:13;100457.22;;;15.42;87.58
53647;BME280;39550;52.230;5.194;2023-08-06T06:52:38;100460.66;;;15.42;87.30
53647;BME280;39550;52.230;5.194;2023-08-06T06:55:04;100454.63;;;15.42;88.44
53647;BME280;39550;52.230;5.194;2023-08-06T06:57:29;100457.19;;;15.43;87.72
53647;BME280;39550;52.230;5.194;2023-08-06T06:59:55;100459.72;;;15.48;88.16
53647;BME280;39550;52.230;5.194;2023-08-06T07:02:20;100458.69;;;15.57;87.68
53647;BME280;39550;52.230;5.194;2023-08-06T07:04:45;100464.84;;;15.51;87.41
53647;BME280;39550;52.230;5.194;2023-08-06T07:07:11;100466.66;;;15.46;87.14
53647;BME280;39550;52.230;5.194;2023-08-06T07:09:36;100462.34;;;15.45;87.79
53647;BME280;39550;52.230;5.194;2023-08-06T07:12:02;100459.75;;;15.45;87.64
53647;BME280;39550;52.230;5.194;2023-08-06T07:14:28;100456.34;;;15.43;87.42
53647;BME280;39550;52.230;5.194;2023-08-06T07:16:54;100457.19;;;15.43;87.72
53647;BME280;39550;52.230;5.194;2023-08-06T07:19:19;100459.75;;;15.45;87.58
53647;BME280;39550;52.230;5.194;2023-08-06T07:21:44;100457.16;;;15.45;86.86
53647;BME280;39550;52.230;5.194;2023-08-06T07:24:10;100454.53;;;15.48;87.32
53647;BME280;39550;52.230;5.194;2023-08-06T07:26:35;100466.59;;;15.49;87.22
53647;BME280;39550;52.230;5.194;2023-08-06T07:29:00;100475.28;;;15.48;87.06
53647;BME280;39550;52.230;5.194;2023-08-06T07:31:26;100475.38;;;15.42;86.98
53647;BME280;39550;52.230;5.194;2023-08-06T07:33:51;100489.19;;;15.45;86.74
53647;BME280;39550;52.230;5.194;2023-08-06T07:36:18;100491.81;;;15.44;87.55
53647;BME280;39550;52.230;5.194;2023-08-06T07:38:43;100485.84;;;15.39;87.15
53647;BME280;39550;52.230;5.194;2023-08-06T07:41:09;100481.66;;;15.30;87.03
53647;BME280;39550;52.230;5.194;2023-08-06T07:43:37;100496.16;;;15.42;86.97
53647;BME280;39550;52.230;5.194;2023-08-06T07:46:03;100430.28;;;14.99;87.21
53647;BME280;39550;52.230;5.194;2023-08-06T07:48:28;100458.53;;;15.18;87.31
53647;BME280;39550;52.230;5.194;2023-08-06T07:50:54;100466.28;;;15.19;87.63
53647;BME280;39550;52.230;5.194;2023-08-06T07:53:24;100498.81;;;15.39;87.61
53647;BME280;39550;52.230;5.194;2023-08-06T07:55:53;100499.63;;;15.41;86.99
53647;BME280;39550;52.230;5.194;2023-08-06T07:58:20;100413.94;;;14.94;86.84
53647;BME280;39550;52.230;5.194;2023-08-06T08:00:46;100446.53;;;15.09;86.96
53647;BME280;39550;52.230;5.194;2023-08-06T08:03:15;100459.41;;;15.17;87.14
53647;BME280;39550;52.230;5.194;2023-08-06T08:05:44;100381.47;;;14.70;86.94
53647;BME280;39550;52.230;5.194;2023-08-06T08:08:10;100369.50;;;14.62;86.74
53647;BME280;39550;52.230;5.194;2023-08-06T08:10:36;100443.13;;;15.07;86.56
53647;BME280;39550;52.230;5.194;2023-08-06T08:13:03;100437.97;;;15.05;87.27
53647;BME280;39550;52.230;5.194;2023-08-06T08:15:30;100460.31;;;15.14;86.98
53647;BME280;39550;52.230;5.194;2023-08-06T08:17:55;100456.78;;;15.18;86.53
53647;BME280;39550;52.230;5.194;2023-08-06T08:20:24;100465.44;;;15.17;87.00
53647;BME280;39550;52.230;5.194;2023-08-06T08:22:52;100392.69;;;14.72;86.29
53647;BME280;39550;52.230;5.194;2023-08-06T08:25:17;100462.09;;;15.12;86.79
53647;BME280;39550;52.230;5.194;2023-08-06T08:27:43;100484.31;;;15.25;86.89
53647;BME280;39550;52.230;5.194;2023-08-06T08:30:08;100476.66;;;15.19;86.68
53647;BME280;39550;52.230;5.194;2023-08-06T08:32:34;100417.59;;;14.82;87.02
53647;BME280;39550;52.230;5.194;2023-08-06T08:34:59;100396.97;;;14.73;86.67
53647;BME280;39550;52.230;5.194;2023-08-06T08:37:25;100480.06;;;15.21;86.81
53647;BME280;39550;52.230;5.194;2023-08-06T08:39:50;100398.66;;;14.77;86.50
53647;BME280;39550;52.230;5.194;2023-08-06T08:42:16;100422.69;;;14.87;86.25
53647;BME280;39550;52.230;5.194;2023-08-06T08:44:42;100508.16;;;15.49;85.80
53647;BME280;39550;52.230;5.194;2023-08-06T08:47:20;100478.13;;;15.32;86.05
53647;BME280;39550;52.230;5.194;2023-08-06T08:49:46;100413.88;;;14.98;85.88
53647;BME280;39550;52.230;5.194;2023-08-06T08:52:15;100514.91;;;15.59;86.17
53647;BME280;39550;52.230;5.194;2023-08-06T08:54:46;100523.50;;;15.61;85.60
53647;BME280;39550;52.230;5.194;2023-08-06T08:57:14;100429.22;;;15.11;85.63
53647;BME280;39550;52.230;5.194;2023-08-06T08:59:39;100447.28;;;15.15;85.60
53647;BME280;39550;52.230;5.194;2023-08-06T09:02:05;100525.22;;;15.62;85.70
53647;BME280;39550;52.230;5.194;2023-08-06T09:04:33;100533.00;;;15.64;85.63
53647;BME280;39550;52.230;5.194;2023-08-06T09:07:00;100435.41;;;15.04;85.40
53647;BME280;39550;52.230;5.194;2023-08-06T09:12:56;100405.44;;;14.84;84.67
53647;BME280;39550;52.230;5.194;2023-08-06T09:15:25;100546.72;;;15.71;85.21
53647;BME280;39550;52.230;5.194;2023-08-06T09:17:54;100481.66;;;15.28;85.60
53647;BME280;39550;52.230;5.194;2023-08-06T09:20:20;100500.53;;;15.40;85.16
53647;BME280;39550;52.230;5.194;2023-08-06T09:22:46;100494.50;;;15.38;85.17
53647;BME280;39550;52.230;5.194;2023-08-06T09:25:21;100496.38;;;15.29;85.34
53647;BME280;39550;52.230;5.194;2023-08-06T09:27:47;100453.50;;;15.07;85.45
53647;BME280;39550;52.230;5.194;2023-08-06T09:30:31;100510.97;;;15.38;85.18
53647;BME280;39550;52.230;5.194;2023-08-06T09:33:00;100493.09;;;15.20;85.54
53647;BME280;39550;52.230;5.194;2023-08-06T09:35:28;100458.09;;;14.91;85.48
53647;BME280;39550;52.230;5.194;2023-08-06T09:37:58;100512.09;;;15.20;85.64
53647;BME280;39550;52.230;5.194;2023-08-06T09:40:32;100527.63;;;15.23;86.00
53647;BME280;39550;52.230;5.194;2023-08-06T09:43:01;100552.50;;;15.38;85.80
53647;BME280;39550;52.230;5.194;2023-08-06T09:45:31;100501.94;;;15.08;85.72
53647;BME280;39550;52.230;5.194;2023-08-06T09:47:59;100508.78;;;15.12;86.22
53647;BME280;39550;52.230;5.194;2023-08-06T09:50:29;100584.31;;;15.51;86.26
53647;BME280;39550;52.230;5.194;2023-08-06T09:53:04;100542.31;;;15.24;86.42
53647;BME280;39550;52.230;5.194;2023-08-06T09:55:34;100547.59;;;15.20;86.46
53647;BME280;39550;52.230;5.194;2023-08-06T09:58:19;100541.59;;;15.16;86.68
53647;BME280;39550;52.230;5.194;2023-08-06T10:00:47;100600.81;;;15.47;86.38
53647;BME280;39550;52.230;5.194;2023-08-06T10:03:25;100581.91;;;15.39;86.66
53647;BME280;39550;52.230;5.194;2023-08-06T10:06:00;100495.44;;;14.80;86.57
53647;BME280;39550;52.230;5.194;2023-08-06T10:08:27;100567.41;;;15.24;86.66
53647;BME280;39550;52.230;5.194;2023-08-06T10:10:53;100566.63;;;15.19;86.48
53647;BME280;39550;52.230;5.194;2023-08-06T10:13:19;100527.91;;;15.05;86.88
53647;BME280;39550;52.230;5.194;2023-08-06T10:15:52;100486.78;;;14.80;86.81
53647;BME280;39550;52.230;5.194;2023-08-06T10:18:21;100538.31;;;15.03;86.92
53647;BME280;39550;52.230;5.194;2023-08-06T10:20:50;100504.00;;;14.84;86.86
53647;BME280;39550;52.230;5.194;2023-08-06T10:23:18;100593.09;;;15.41;86.24
53647;BME280;39550;52.230;5.194;2023-08-06T10:25:56;100569.13;;;15.26;86.22
53647;BME280;39550;52.230;5.194;2023-08-06T10:28:24;100612.94;;;15.45;86.86
53647;BME280;39550;52.230;5.194;2023-08-06T10:30:59;100602.59;;;15.43;86.54
53647;BME280;39550;52.230;5.194;2023-08-06T10:33:43;100565.78;;;15.18;86.49
53647;BME280;39550;52.230;5.194;2023-08-06T10:36:09;100595.81;;;15.35;86.83
53647;BME280;39550;52.230;5.194;2023-08-06T10:38:48;100544.38;;;15.05;86.29
53647;BME280;39550;52.230;5.194;2023-08-06T10:41:21;100488.63;;;14.73;86.34
53647;BME280;39550;52.230;5.194;2023-08-06T10:43:47;100519.59;;;14.84;86.56
53647;BME280;39550;52.230;5.194;2023-08-06T10:46:28;100582.19;;;15.22;86.70
53647;BME280;39550;52.230;5.194;2023-08-06T10:48:54;100577.00;;;15.22;86.75
53647;BME280;39550;52.230;5.194;2023-08-06T10:51:35;100555.63;;;15.04;86.92
53647;BME280;39550;52.230;5.194;2023-08-06T10:54:11;100551.31;;;15.02;87.09
53647;BME280;39550;52.230;5.194;2023-08-06T10:56:40;100629.38;;;15.47;86.41
53647;BME280;39550;52.230;5.194;2023-08-06T10:59:06;100632.84;;;15.46;87.01
53647;BME280;39550;52.230;5.194;2023-08-06T11:01:32;100640.63;;;15.46;86.65
53647;BME280;39550;52.230;5.194;2023-08-06T11:04:02;100625.94;;;15.45;86.65
53647;BME280;39550;52.230;5.194;2023-08-06T11:06:27;100632.91;;;15.43;86.57
53647;BME280;39550;52.230;5.194;2023-08-06T11:08:54;100633.72;;;15.45;86.78
53647;BME280;39550;52.230;5.194;2023-08-06T11:11:21;100632.88;;;15.44;86.74
53647;BME280;39550;52.230;5.194;2023-08-06T11:13:49;100638.09;;;15.43;86.68
53647;BME280;39550;52.230;5.194;2023-08-06T11:18:55;100638.16;;;15.40;87.00
53647;BME280;39550;52.230;5.194;2023-08-06T11:21:21;100646.75;;;15.42;87.29
53647;BME280;39550;52.230;5.194;2023-08-06T11:23:48;100641.56;;;15.42;87.29
53647;BME280;39550;52.230;5.194;2023-08-06T11:26:21;100641.56;;;15.42;86.58
53647;BME280;39550;52.230;5.194;2023-08-06T11:28:49;100643.28;;;15.43;87.24
53647;BME280;39550;52.230;5.194;2023-08-06T11:31:24;100643.28;;;15.43;86.60
53647;BME280;39550;52.230;5.194;2023-08-06T11:33:53;100643.28;;;15.43;86.53
53647;BME280;39550;52.230;5.194;2023-08-06T11:36:31;100650.19;;;15.42;86.57
53647;BME280;39550;52.230;5.194;2023-08-06T11:39:02;100653.69;;;15.43;86.83
53647;BME280;39550;52.230;5.194;2023-08-06T11:41:29;100657.16;;;15.42;86.82
53647;BME280;39550;52.230;5.194;2023-08-06T11:43:54;100658.00;;;15.44;87.27
53647;BME280;39550;52.230;5.194;2023-08-06T11:46:20;100657.09;;;15.45;86.54
53647;BME280;39550;52.230;5.194;2023-08-06T11:48:56;100674.41;;;15.46;87.05
53647;BME280;39550;52.230;5.194;2023-08-06T11:51:28;100658.00;;;15.42;87.09
53647;BME280;39550;52.230;5.194;2023-08-06T11:53:59;100663.25;;;15.39;86.95
53647;BME280;39550;52.230;5.194;2023-08-06T11:56:25;100669.19;;;15.46;86.78
53647;BME280;39550;52.230;5.194;2023-08-06T11:58:52;100678.72;;;15.47;87.24
53647;BME280;39550;52.230;5.194;2023-08-06T12:01:19;100674.41;;;15.46;86.95
53647;BME280;39550;52.230;5.194;2023-08-06T12:03:44;100672.66;;;15.48;86.57
53647;BME280;39550;52.230;5.194;2023-08-06T12:06:10;100677.84;;;15.48;86.77
53647;BME280;39550;52.230;5.194;2023-08-06T12:08:35;100677.84;;;15.48;86.29
53647;BME280;39550;52.230;5.194;2023-08-06T12:11:00;100672.66;;;15.48;86.49
53647;BME280;39550;52.230;5.194;2023-08-06T12:13:26;100678.69;;;15.48;87.05
53647;BME280;39550;52.230;5.194;2023-08-06T12:15:54;100679.56;;;15.47;86.34
53647;BME280;39550;52.230;5.194;2023-08-06T12:18:19;100683.03;;;15.48;86.21
53647;BME280;39550;52.230;5.194;2023-08-06T12:20:44;100684.72;;;15.49;86.51
53647;BME280;39550;52.230;5.194;2023-08-06T12:23:10;100678.69;;;15.48;86.63
53647;BME280;39550;52.230;5.194;2023-08-06T12:25:38;100683.00;;;15.51;85.98
53647;BME280;39550;52.230;5.194;2023-08-06T12:28:03;100689.06;;;15.50;86.63
53647;BME280;39550;52.230;5.194;2023-08-06T12:30:31;100689.03;;;15.52;86.68
53647;BME280;39550;52.230;5.194;2023-08-06T12:32:56;100676.91;;;15.52;85.82
53647;BME280;39550;52.230;5.194;2023-08-06T12:35:21;100679.50;;;15.52;85.80
53647;BME280;39550;52.230;5.194;2023-08-06T12:37:47;100689.91;;;15.52;86.07
53647;BME280;39550;52.230;5.194;2023-08-06T12:40:12;100691.59;;;15.53;85.88
53647;BME280;39550;52.230;5.194;2023-08-06T12:42:38;100691.59;;;15.53;85.93
53647;BME280;39550;52.230;5.194;2023-08-06T12:45:03;100697.66;;;15.54;86.01
53647;BME280;39550;52.230;5.194;2023-08-06T12:47:29;100698.53;;;15.53;86.02
53647;BME280;39550;52.230;5.194;2023-08-06T12:49:54;100701.97;;;15.53;85.65
53647;BME280;39550;52.230;5.194;2023-08-06T12:52:19;100708.91;;;15.54;86.01
53647;BME280;39550;52.230;5.194;2023-08-06T12:54:45;100707.19;;;15.53;86.14
53647;BME280;39550;52.230;5.194;2023-08-06T12:57:11;100711.50;;;15.54;85.76
53647;BME280;39550;52.230;5.194;2023-08-06T12:59:37;100712.38;;;15.53;86.29
53647;BME280;39550;52.230;5.194;2023-08-06T13:02:03;100718.41;;;15.55;86.32
53647;BME280;39550;52.230;5.194;2023-08-06T13:04:28;100714.09;;;15.54;86.01